createdAt,value
2022-08-17T00:00:43.193Z,25.03
2022-08-17T00:03:25.166Z,25.04
2022-08-17T00:06:02.501Z,25.08
2022-08-17T00:08:39.886Z,25.08
2022-08-17T00:11:12.582Z,25.09
2022-08-17T00:13:46.339Z,25.11
2022-08-17T00:16:56.618Z,25.14
2022-08-17T00:19:18.205Z,25.16
2022-08-17T00:22:31.732Z,25.19
2022-08-17T00:24:37.655Z,25.21
2022-08-17T00:27:06.212Z,25.24
2022-08-17T00:29:34.750Z,25.29
2022-08-17T00:33:14.624Z,25.30
2022-08-17T00:34:52.989Z,25.32
2022-08-17T00:37:21.537Z,25.32
2022-08-17T00:39:50.091Z,25.34
2022-08-17T00:42:20.642Z,25.36
2022-08-17T00:44:49.330Z,25.38
2022-08-17T00:47:17.837Z,25.39
2022-08-17T00:49:46.475Z,25.41
2022-08-17T00:52:21.636Z,25.43
2022-08-17T00:54:55.029Z,25.46
2022-08-17T00:57:30.053Z,25.50
2022-08-17T01:00:07.299Z,25.53
2022-08-17T01:02:51.529Z,25.58
2022-08-17T01:05:25.555Z,25.62
2022-08-17T01:07:55.605Z,25.66
2022-08-17T01:10:58.656Z,25.71
2022-08-17T01:13:25.606Z,25.75
2022-08-17T01:16:08.216Z,25.80
2022-08-17T01:18:37.184Z,25.84
2022-08-17T01:21:23.795Z,25.86
2022-08-17T01:23:52.366Z,25.90
2022-08-17T01:26:21.462Z,25.91
2022-08-17T01:28:54.263Z,25.92
2022-08-17T01:31:26.934Z,25.95
2022-08-17T01:33:55.643Z,25.95
2022-08-17T01:36:24.200Z,25.97
2022-08-17T01:38:53.067Z,26.01
2022-08-17T01:41:25.564Z,26.01
2022-08-17T01:43:59.130Z,26.06
2022-08-17T01:46:31.352Z,26.10
2022-08-17T01:49:00.756Z,26.11
2022-08-17T01:51:35.301Z,26.12
2022-08-17T01:54:07.729Z,26.13
2022-08-17T01:56:39.914Z,26.13
2022-08-17T01:59:08.482Z,26.15
2022-08-17T02:01:38.063Z,26.16
2022-08-17T02:04:09.499Z,26.16
2022-08-17T02:06:52.675Z,26.17
2022-08-17T02:09:26.287Z,26.18
2022-08-17T02:12:38.300Z,26.19
2022-08-17T02:14:51.655Z,26.21
2022-08-17T02:17:20.690Z,26.22
2022-08-17T02:19:49.409Z,26.23
2022-08-17T02:22:19.248Z,26.23
2022-08-17T02:24:59.901Z,26.25
2022-08-17T02:27:30.947Z,26.27
2022-08-17T02:29:59.490Z,26.30
2022-08-17T02:32:28.828Z,26.31
2022-08-17T02:35:01.711Z,26.35
2022-08-17T02:37:31.517Z,26.38
2022-08-17T02:40:01.431Z,26.41
2022-08-17T02:42:42.498Z,26.46
2022-08-17T02:45:20.275Z,26.47
2022-08-17T02:47:48.931Z,26.52
2022-08-17T02:50:20.295Z,26.55
2022-08-17T02:53:01.712Z,26.58
2022-08-17T02:55:44.177Z,26.60
2022-08-17T02:58:14.655Z,26.63
2022-08-17T03:01:04.298Z,26.69
2022-08-17T03:03:32.943Z,26.74
2022-08-17T03:06:01.679Z,26.79
2022-08-17T03:08:31.239Z,26.84
2022-08-17T03:10:59.807Z,26.88
2022-08-17T03:13:28.607Z,26.90
2022-08-17T03:15:57.612Z,26.91
2022-08-17T03:18:26.829Z,26.92
2022-08-17T03:20:58.024Z,26.94
2022-08-17T03:23:29.595Z,26.95
2022-08-17T03:25:58.872Z,26.98
2022-08-17T03:28:29.281Z,27.02
2022-08-17T03:30:57.916Z,27.03
2022-08-17T03:33:26.647Z,27.08
2022-08-17T03:35:55.242Z,27.15
2022-08-17T03:38:23.884Z,27.18
2022-08-17T03:40:58.733Z,27.19
2022-08-17T03:43:33.923Z,27.28
2022-08-17T03:46:27.823Z,27.33
2022-08-17T03:49:24.567Z,27.39
2022-08-17T03:52:12.566Z,27.46
2022-08-17T03:55:00.217Z,27.51
2022-08-17T03:57:29.683Z,27.58
2022-08-17T03:59:58.543Z,27.63
2022-08-17T04:02:30.769Z,27.65
2022-08-17T04:04:59.969Z,27.70
2022-08-17T04:07:31.442Z,27.73
2022-08-17T04:10:00.631Z,27.78
2022-08-17T04:12:32.948Z,27.81
2022-08-17T04:15:01.417Z,27.89
2022-08-17T04:17:31.043Z,27.92
2022-08-17T04:19:59.656Z,27.96
2022-08-17T04:22:30.226Z,27.98
2022-08-17T04:25:01.065Z,27.99
2022-08-17T04:27:29.667Z,28.00
2022-08-17T04:29:59.550Z,27.98
2022-08-17T04:33:03.712Z,28.01
2022-08-17T04:35:21.000Z,28.09
2022-08-17T04:37:49.777Z,28.13
2022-08-17T04:40:38.069Z,28.13
2022-08-17T04:43:10.202Z,28.14
2022-08-17T04:45:55.096Z,28.08
2022-08-17T04:48:35.638Z,28.05
2022-08-17T04:51:15.537Z,28.02
2022-08-17T04:53:53.193Z,27.99
2022-08-17T04:56:24.300Z,27.96
2022-08-17T04:58:54.620Z,27.95
2022-08-17T05:01:25.050Z,27.96
2022-08-17T05:03:57.141Z,27.95
2022-08-17T05:06:26.669Z,27.99
2022-08-17T05:08:56.012Z,27.98
2022-08-17T05:11:26.643Z,28.01
2022-08-17T05:13:56.803Z,27.99
2022-08-17T05:16:27.518Z,27.97
2022-08-17T05:18:56.721Z,28.01
2022-08-17T05:21:26.043Z,28.05
2022-08-17T05:23:56.406Z,28.10
2022-08-17T05:26:27.385Z,28.18
2022-08-17T05:29:02.450Z,28.24
2022-08-17T05:31:32.892Z,28.31
2022-08-17T05:34:01.521Z,28.35
2022-08-17T05:36:41.684Z,28.41
2022-08-17T05:39:16.940Z,28.45
2022-08-17T05:41:48.005Z,28.52
2022-08-17T05:44:17.534Z,28.52
2022-08-17T05:46:51.840Z,28.60
2022-08-17T05:49:28.245Z,28.55
2022-08-17T05:51:59.324Z,28.56
2022-08-17T05:54:58.681Z,28.55
2022-08-17T05:57:33.428Z,28.49
2022-08-17T06:00:20.427Z,28.43
2022-08-17T06:02:51.864Z,28.39
2022-08-17T06:05:38.660Z,28.38
2022-08-17T06:08:23.042Z,28.38
2022-08-17T06:11:04.320Z,28.34
2022-08-17T06:13:56.958Z,28.28
2022-08-17T06:16:34.167Z,28.31
2022-08-17T06:19:25.605Z,28.31
2022-08-17T06:21:57.331Z,28.28
2022-08-17T06:24:35.287Z,28.34
2022-08-17T06:27:31.336Z,28.34
2022-08-17T06:30:12.242Z,28.40
2022-08-17T06:32:44.050Z,28.38
2022-08-17T06:35:17.014Z,28.41
2022-08-17T06:38:03.202Z,28.40
2022-08-17T06:40:37.367Z,28.44
2022-08-17T06:43:43.990Z,28.45
2022-08-17T06:46:26.354Z,28.43
2022-08-17T06:49:27.205Z,28.42
2022-08-17T06:52:07.948Z,28.48
2022-08-17T06:54:53.910Z,28.45
2022-08-17T06:57:32.026Z,28.49
2022-08-17T07:00:21.178Z,28.53
2022-08-17T07:03:14.059Z,28.53
2022-08-17T07:05:55.484Z,28.52
2022-08-17T07:08:45.758Z,28.47
2022-08-17T07:11:22.088Z,28.43
2022-08-17T07:14:02.603Z,28.42
2022-08-17T07:16:47.687Z,28.43
2022-08-17T07:19:21.472Z,28.40
2022-08-17T07:22:05.327Z,28.39
2022-08-17T07:24:40.262Z,28.34
2022-08-17T07:27:12.849Z,28.26
2022-08-17T07:29:57.662Z,28.23
2022-08-17T07:32:34.057Z,28.17
2022-08-17T07:35:12.632Z,28.13
2022-08-17T07:37:56.925Z,28.09
2022-08-17T07:40:34.535Z,28.06
2022-08-17T07:43:11.467Z,28.04
2022-08-17T07:46:30.770Z,28.02
2022-08-17T07:49:17.573Z,28.04
2022-08-17T07:51:48.600Z,28.06
2022-08-17T07:54:17.127Z,28.11
2022-08-17T07:56:56.027Z,28.13
2022-08-17T07:59:29.408Z,28.20
2022-08-17T08:02:07.368Z,28.29
2022-08-17T08:05:00.756Z,28.35
2022-08-17T08:07:36.259Z,28.44
2022-08-17T08:10:29.591Z,28.55
2022-08-17T08:13:23.097Z,28.60
2022-08-17T08:15:57.755Z,28.66
2022-08-17T08:18:53.455Z,28.70
2022-08-17T08:21:25.674Z,28.75
2022-08-17T08:24:19.954Z,28.75
2022-08-17T08:26:58.259Z,28.77
2022-08-17T08:29:45.291Z,28.79
2022-08-17T08:32:16.320Z,28.78
2022-08-17T08:35:02.802Z,28.78
2022-08-17T08:38:11.084Z,28.75
2022-08-17T08:41:17.276Z,28.76
2022-08-17T08:43:53.161Z,28.79
2022-08-17T08:46:55.539Z,28.79
2022-08-17T08:50:02.673Z,28.77
2022-08-17T08:52:38.642Z,28.76
2022-08-17T08:55:26.515Z,28.74
2022-08-17T08:58:04.519Z,28.76
2022-08-17T09:00:39.755Z,28.75
2022-08-17T09:03:27.986Z,28.73
2022-08-17T09:06:33.615Z,28.71
2022-08-17T09:09:16.558Z,28.72
2022-08-17T09:12:26.435Z,28.72
2022-08-17T09:15:29.822Z,28.73
2022-08-17T09:19:00.286Z,28.76
2022-08-17T09:21:48.174Z,28.77
2022-08-17T09:24:24.087Z,28.78
2022-08-17T09:27:04.476Z,28.77
2022-08-17T09:29:37.711Z,28.79
2022-08-17T09:32:23.534Z,28.77
2022-08-17T09:35:02.582Z,28.78
2022-08-17T09:37:35.628Z,28.76
2022-08-17T09:40:25.747Z,28.76
2022-08-17T09:43:07.842Z,28.75
2022-08-17T09:45:51.681Z,28.73
2022-08-17T09:48:26.170Z,28.74
2022-08-17T09:51:17.003Z,28.73
2022-08-17T09:53:45.690Z,28.71
2022-08-17T09:57:05.985Z,28.71
2022-08-17T09:59:57.295Z,28.74
2022-08-17T10:02:41.816Z,28.77
2022-08-17T10:05:18.963Z,28.72
2022-08-17T10:08:16.904Z,28.77
2022-08-17T10:11:15.724Z,28.81
2022-08-17T10:14:36.063Z,28.78
2022-08-17T10:17:24.407Z,28.77
2022-08-17T10:20:15.901Z,28.77
2022-08-17T10:23:15.995Z,28.76
2022-08-17T10:26:17.078Z,28.72
2022-08-17T10:28:54.430Z,28.70
2022-08-17T10:31:35.735Z,28.66
2022-08-17T10:34:14.839Z,28.65
2022-08-17T10:36:55.742Z,28.60
2022-08-17T10:40:01.774Z,28.58
2022-08-17T10:42:39.006Z,28.56
2022-08-17T10:45:22.759Z,28.56
2022-08-17T10:48:05.177Z,28.52
2022-08-17T10:50:59.324Z,28.49
2022-08-17T10:53:34.169Z,28.47
2022-08-17T10:56:46.112Z,28.44
2022-08-17T10:59:37.456Z,28.43
2022-08-17T11:02:14.172Z,28.41
2022-08-17T11:05:13.240Z,28.39
2022-08-17T11:07:42.148Z,28.36
2022-08-17T11:10:28.761Z,28.34
2022-08-17T11:13:29.139Z,28.31
2022-08-17T11:16:27.070Z,28.28
2022-08-17T11:19:22.779Z,28.26
2022-08-17T11:22:03.354Z,28.24
2022-08-17T11:24:35.184Z,28.21
2022-08-17T11:27:15.464Z,28.18
2022-08-17T11:30:36.967Z,28.16
2022-08-17T11:33:31.802Z,28.13
2022-08-17T11:36:19.061Z,28.11
2022-08-17T11:39:03.482Z,28.07
2022-08-17T11:41:53.065Z,28.03
2022-08-17T11:44:41.637Z,28.00
2022-08-17T11:48:27.127Z,27.98
2022-08-17T11:51:18.637Z,27.92
2022-08-17T11:53:47.212Z,27.92
2022-08-17T11:56:45.021Z,27.88
2022-08-17T11:59:34.924Z,27.90
2022-08-17T12:02:27.391Z,27.89
2022-08-17T12:05:24.394Z,27.86
2022-08-17T12:08:18.794Z,27.85
2022-08-17T12:10:59.437Z,27.84
2022-08-17T12:13:30.583Z,27.81
2022-08-17T12:16:10.970Z,27.81
2022-08-17T12:18:42.995Z,27.78
2022-08-17T12:21:27.129Z,27.78
2022-08-17T12:24:06.335Z,27.76
2022-08-17T12:26:37.842Z,27.74
2022-08-17T12:29:18.155Z,27.72
2022-08-17T12:32:07.818Z,27.70
2022-08-17T12:34:43.176Z,27.68
2022-08-17T12:37:24.227Z,27.66
2022-08-17T12:40:06.059Z,27.65
2022-08-17T12:42:40.270Z,27.64
2022-08-17T12:45:23.011Z,27.63
2022-08-17T12:48:08.793Z,27.60
2022-08-17T12:50:48.720Z,27.61
2022-08-17T12:53:19.186Z,27.59
2022-08-17T12:55:49.124Z,27.58
2022-08-17T12:58:26.060Z,27.57
2022-08-17T13:01:03.094Z,27.56
2022-08-17T13:03:41.299Z,27.53
2022-08-17T13:06:14.805Z,27.52
2022-08-17T13:08:47.093Z,27.51
2022-08-17T13:11:15.680Z,27.51
2022-08-17T13:13:48.367Z,27.51
2022-08-17T13:16:19.254Z,27.51
2022-08-17T13:18:51.961Z,27.50
2022-08-17T13:21:20.398Z,27.50
2022-08-17T13:24:04.934Z,27.49
2022-08-17T13:26:40.443Z,27.49
2022-08-17T13:29:25.062Z,27.50
2022-08-17T13:32:04.082Z,27.50
2022-08-17T13:35:11.803Z,27.52
2022-08-17T13:37:36.645Z,27.52
2022-08-17T13:40:11.614Z,27.53
2022-08-17T13:42:56.540Z,27.53
2022-08-17T13:45:40.153Z,27.56
2022-08-17T13:48:12.517Z,27.56
2022-08-17T13:50:51.197Z,27.57
2022-08-17T13:53:38.028Z,27.58
2022-08-17T13:56:33.311Z,27.59
2022-08-17T13:59:06.363Z,27.62
2022-08-17T14:01:55.573Z,27.59
2022-08-17T14:04:30.492Z,27.59
2022-08-17T14:07:12.540Z,27.59
2022-08-17T14:09:55.001Z,27.59
2022-08-17T14:12:26.346Z,27.59
2022-08-17T14:14:57.364Z,27.59
2022-08-17T14:17:27.425Z,27.58
2022-08-17T14:19:56.399Z,27.57
2022-08-17T14:22:34.475Z,27.53
2022-08-17T14:25:03.578Z,27.52
2022-08-17T14:27:51.961Z,27.49
2022-08-17T14:30:29.643Z,27.47
2022-08-17T14:33:00.396Z,27.45
2022-08-17T14:35:30.537Z,27.43
2022-08-17T14:37:59.444Z,27.42
2022-08-17T14:40:28.569Z,27.39
2022-08-17T14:42:59.080Z,27.40
2022-08-17T14:45:33.159Z,27.39
2022-08-17T14:48:08.645Z,27.40
2022-08-17T14:50:42.867Z,27.37
2022-08-17T14:53:14.911Z,27.34
2022-08-17T14:55:44.283Z,27.32
2022-08-17T14:58:15.437Z,27.29
2022-08-17T15:00:44.696Z,27.28
2022-08-17T15:03:13.381Z,27.25
2022-08-17T15:05:42.030Z,27.24
2022-08-17T15:08:10.608Z,27.20
2022-08-17T15:10:40.155Z,27.18
2022-08-17T15:13:24.232Z,27.16
2022-08-17T15:15:53.367Z,27.10
2022-08-17T15:18:21.984Z,27.12
2022-08-17T15:20:51.561Z,27.11
2022-08-17T15:23:25.686Z,27.07
2022-08-17T15:25:55.957Z,27.04
2022-08-17T15:28:24.693Z,27.02
2022-08-17T15:30:54.830Z,27.01
2022-08-17T15:33:30.318Z,27.00
2022-08-17T15:36:05.873Z,26.96
2022-08-17T15:38:37.798Z,26.92
2022-08-17T15:41:08.534Z,26.87
2022-08-17T15:43:37.805Z,26.82
2022-08-17T15:46:08.072Z,26.77
2022-08-17T15:48:42.958Z,26.70
2022-08-17T15:51:27.341Z,26.64
2022-08-17T15:53:59.446Z,26.54
2022-08-17T15:56:33.882Z,26.46
2022-08-17T15:59:02.710Z,26.38
2022-08-17T16:03:01.687Z,26.34
2022-08-17T16:04:26.820Z,26.28
2022-08-17T16:07:00.734Z,26.24
2022-08-17T16:09:29.547Z,26.21
2022-08-17T16:11:58.292Z,26.15
2022-08-17T16:14:32.510Z,26.15
2022-08-17T16:17:05.560Z,26.13
2022-08-17T16:19:54.170Z,26.13
2022-08-17T16:22:36.549Z,26.11
2022-08-17T16:25:10.426Z,26.12
2022-08-17T16:27:39.195Z,26.12
2022-08-17T16:30:11.445Z,26.10
2022-08-17T16:32:44.117Z,26.08
2022-08-17T16:35:17.330Z,26.09
2022-08-17T16:37:46.630Z,26.11
2022-08-17T16:40:17.586Z,26.11
2022-08-17T16:42:49.528Z,26.10
2022-08-17T16:45:22.021Z,26.09
2022-08-17T16:47:51.259Z,26.09
2022-08-17T16:50:24.175Z,26.08
2022-08-17T16:52:53.224Z,26.09
2022-08-17T16:55:23.743Z,26.08
2022-08-17T16:57:52.236Z,26.09
2022-08-17T17:00:21.945Z,26.08
2022-08-17T17:02:50.904Z,26.06
2022-08-17T17:05:58.043Z,26.07
2022-08-17T17:08:33.510Z,26.07
2022-08-17T17:11:12.439Z,26.08
2022-08-17T17:13:48.286Z,26.09
2022-08-17T17:16:28.273Z,26.09
2022-08-17T17:19:02.799Z,26.10
2022-08-17T17:21:39.052Z,26.10
2022-08-17T17:24:14.810Z,26.09
2022-08-17T17:27:11.827Z,26.10
2022-08-17T17:30:08.477Z,26.10
2022-08-17T17:32:57.479Z,26.11
2022-08-17T17:35:44.620Z,26.12
2022-08-17T17:38:20.827Z,26.12
2022-08-17T17:40:54.843Z,26.12
2022-08-17T17:43:39.593Z,26.12
2022-08-17T17:46:27.154Z,26.12
2022-08-17T17:48:58.826Z,26.13
2022-08-17T17:52:10.804Z,26.14
2022-08-17T17:54:50.925Z,26.15
2022-08-17T17:57:46.219Z,26.15
2022-08-17T18:00:23.067Z,26.15
2022-08-17T18:03:10.032Z,26.15
2022-08-17T18:05:39.640Z,26.17
2022-08-17T18:08:34.336Z,26.17
2022-08-17T18:11:51.363Z,26.18
2022-08-17T18:14:38.658Z,26.18
2022-08-17T18:17:08.344Z,26.17
2022-08-17T18:19:40.972Z,26.18
2022-08-17T18:22:19.280Z,26.20
2022-08-17T18:24:50.743Z,26.21
2022-08-17T18:27:35.856Z,26.21
2022-08-17T18:30:28.679Z,26.21
2022-08-17T18:33:25.347Z,26.23
2022-08-17T18:35:58.674Z,26.26
2022-08-17T18:38:40.931Z,26.27
2022-08-17T18:41:26.931Z,26.28
2022-08-17T18:44:21.391Z,26.30
2022-08-17T18:47:06.114Z,26.31
2022-08-17T18:49:35.711Z,26.33
2022-08-17T18:52:31.491Z,26.34
2022-08-17T18:55:17.454Z,26.35
2022-08-17T18:57:54.719Z,26.34
2022-08-17T19:00:45.094Z,26.35
2022-08-17T19:03:19.708Z,26.37
2022-08-17T19:05:52.805Z,26.35
2022-08-17T19:08:30.449Z,26.38
2022-08-17T19:11:08.843Z,26.37
2022-08-17T19:13:41.453Z,26.38
2022-08-17T19:16:56.256Z,26.38
2022-08-17T19:19:37.740Z,26.39
2022-08-17T19:22:28.543Z,26.38
2022-08-17T19:25:18.452Z,26.38
2022-08-17T19:27:57.511Z,26.38
2022-08-17T19:30:27.076Z,26.38
2022-08-17T19:32:59.326Z,26.39
2022-08-17T19:35:44.564Z,26.37
2022-08-17T19:38:42.153Z,26.40
2022-08-17T19:41:27.897Z,26.40
2022-08-17T19:44:14.639Z,26.40
2022-08-17T19:47:30.456Z,26.39
2022-08-17T19:50:14.518Z,26.42
2022-08-17T19:52:48.764Z,26.42
2022-08-17T19:55:26.079Z,26.40
2022-08-17T19:58:18.798Z,26.41
2022-08-17T20:00:52.985Z,26.41
2022-08-17T20:03:44.259Z,26.41
2022-08-17T20:06:14.359Z,26.42
2022-08-17T20:09:04.686Z,26.42
2022-08-17T20:11:46.563Z,26.40
2022-08-17T20:14:23.654Z,26.42
2022-08-17T20:16:52.763Z,26.39
2022-08-17T20:19:37.921Z,26.41
2022-08-17T20:22:51.884Z,26.37
2022-08-17T20:25:32.695Z,26.41
2022-08-17T20:28:30.621Z,26.39
2022-08-17T20:30:59.952Z,26.38
2022-08-17T20:33:34.540Z,26.40
2022-08-17T20:36:22.861Z,26.40
2022-08-17T20:38:58.716Z,26.38
2022-08-17T20:41:32.222Z,26.38
2022-08-17T20:44:00.720Z,26.39
2022-08-17T20:46:42.874Z,26.38
2022-08-17T20:49:23.838Z,26.37
2022-08-17T20:52:28.208Z,26.37
2022-08-17T20:54:58.781Z,26.39
2022-08-17T20:57:33.437Z,26.39
2022-08-17T21:00:34.130Z,26.38
2022-08-17T21:03:23.640Z,26.38
2022-08-17T21:06:17.266Z,26.37
2022-08-17T21:09:20.847Z,26.37
2022-08-17T21:12:05.664Z,26.37
2022-08-17T21:15:01.351Z,26.37
2022-08-17T21:17:49.372Z,26.36
2022-08-17T21:20:56.710Z,26.37
2022-08-17T21:23:56.940Z,26.37
2022-08-17T21:26:50.727Z,26.35
2022-08-17T21:29:31.066Z,26.34
2022-08-17T21:32:05.265Z,26.35
2022-08-17T21:34:45.327Z,26.33
2022-08-17T21:37:30.458Z,26.33
2022-08-17T21:40:01.785Z,26.33
2022-08-17T21:42:35.744Z,26.31
2022-08-17T21:45:19.827Z,26.31
2022-08-17T21:48:14.070Z,26.31
2022-08-17T21:50:45.983Z,26.28
2022-08-17T21:53:28.085Z,26.26
2022-08-17T21:55:59.383Z,26.23
2022-08-17T21:58:35.158Z,26.22
2022-08-17T22:01:23.667Z,26.22
2022-08-17T22:04:25.761Z,26.20
2022-08-17T22:06:57.361Z,26.19
2022-08-17T22:09:36.931Z,26.15
2022-08-17T22:12:23.175Z,26.14
2022-08-17T22:15:01.396Z,26.11
2022-08-17T22:17:36.546Z,26.10
2022-08-17T22:20:19.839Z,26.07
2022-08-17T22:23:09.429Z,26.04
2022-08-17T22:25:42.442Z,26.02
2022-08-17T22:28:13.374Z,26.00
2022-08-17T22:30:59.780Z,25.98
2022-08-17T22:33:41.860Z,25.97
2022-08-17T22:36:30.124Z,25.95
2022-08-17T22:39:03.585Z,25.94
2022-08-17T22:41:35.706Z,25.93
2022-08-17T22:44:19.332Z,25.90
2022-08-17T22:47:14.110Z,25.88
2022-08-17T22:49:55.485Z,25.85
2022-08-17T22:52:34.760Z,25.85
2022-08-17T22:55:41.697Z,25.84
2022-08-17T22:58:35.307Z,25.81
2022-08-17T23:01:25.839Z,25.78
2022-08-17T23:04:00.654Z,25.74
2022-08-17T23:06:30.822Z,25.74
2022-08-17T23:08:59.381Z,25.72
2022-08-17T23:11:36.533Z,25.71
2022-08-17T23:14:20.970Z,25.72
2022-08-17T23:16:51.964Z,25.71
2022-08-17T23:19:23.092Z,25.69
2022-08-17T23:21:54.840Z,25.67
2022-08-17T23:24:28.997Z,25.67
2022-08-17T23:26:59.173Z,25.69
2022-08-17T23:29:30.314Z,25.69
2022-08-17T23:32:02.297Z,25.70
2022-08-17T23:34:31.756Z,25.71
2022-08-17T23:37:03.352Z,25.71
2022-08-17T23:39:32.575Z,25.73
2022-08-17T23:42:06.086Z,25.73
2022-08-17T23:44:35.102Z,25.72
2022-08-17T23:47:05.630Z,25.74
2022-08-17T23:49:34.259Z,25.74
2022-08-17T23:52:07.410Z,25.75
2022-08-17T23:54:44.648Z,25.75
2022-08-17T23:57:16.348Z,25.76
2022-08-17T23:59:45.758Z,25.76
